createdAt,value
2022-09-30T00:01:20.883Z,94.63
2022-09-30T00:03:24.998Z,95.37
2022-09-30T00:05:27.922Z,95.58
2022-09-30T00:07:30.847Z,95.48
2022-09-30T00:09:33.920Z,95.38
2022-09-30T00:11:38.635Z,95.71
2022-09-30T00:13:41.902Z,95.46
2022-09-30T00:15:47.745Z,95.45
2022-09-30T00:17:52.067Z,95.70
2022-09-30T00:19:55.197Z,95.71
2022-09-30T00:21:58.137Z,95.13
2022-09-30T00:24:01.936Z,93.78
2022-09-30T00:26:06.789Z,93.44
2022-09-30T00:28:09.733Z,93.00
2022-09-30T00:30:12.975Z,92.50
2022-09-30T00:32:15.975Z,92.33
2022-09-30T00:34:20.624Z,92.14
2022-09-30T00:36:23.571Z,92.60
2022-09-30T00:38:26.604Z,92.74
2022-09-30T00:40:30.170Z,92.41
2022-09-30T00:42:33.150Z,92.86
2022-09-30T00:45:05.213Z,93.32
2022-09-30T00:47:23.687Z,93.12
2022-09-30T00:49:27.963Z,93.45
2022-09-30T00:51:34.633Z,93.33
2022-09-30T00:53:41.539Z,93.28
2022-09-30T00:55:52.384Z,93.29
2022-09-30T00:57:56.431Z,93.35
2022-09-30T00:59:59.411Z,94.15
2022-09-30T01:02:02.821Z,93.49
2022-09-30T01:04:08.331Z,94.04
2022-09-30T01:06:12.820Z,93.12
2022-09-30T01:08:18.137Z,93.33
2022-09-30T01:10:21.016Z,93.19
2022-09-30T01:12:25.763Z,93.67
2022-09-30T01:14:29.619Z,92.25
2022-09-30T01:16:46.457Z,92.64
2022-09-30T01:18:56.621Z,92.97
2022-09-30T01:21:29.920Z,93.64
2022-09-30T01:23:48.878Z,94.47
2022-09-30T01:26:04.754Z,94.89
2022-09-30T01:28:25.031Z,94.24
2022-09-30T01:30:42.612Z,93.82
2022-09-30T01:33:05.508Z,93.88
2022-09-30T01:35:13.618Z,94.59
2022-09-30T01:37:23.351Z,95.01
2022-09-30T01:39:32.224Z,94.44
2022-09-30T01:41:42.377Z,94.51
2022-09-30T01:43:48.642Z,94.66
2022-09-30T01:45:58.370Z,95.38
2022-09-30T01:48:04.681Z,94.54
2022-09-30T01:50:11.154Z,94.66
2022-09-30T01:52:16.786Z,94.63
2022-09-30T01:54:22.799Z,94.52
2022-09-30T01:56:30.705Z,93.66
2022-09-30T01:58:38.706Z,94.73
2022-09-30T02:00:44.308Z,94.39
2022-09-30T02:02:50.081Z,94.30
2022-09-30T02:04:57.572Z,93.92
2022-09-30T02:07:04.497Z,94.42
2022-09-30T02:09:10.531Z,93.59
2022-09-30T02:11:17.481Z,94.43
2022-09-30T02:13:28.867Z,94.56
2022-09-30T02:15:40.370Z,94.76
2022-09-30T02:17:48.877Z,94.64
2022-09-30T02:19:53.567Z,94.89
2022-09-30T02:22:01.324Z,93.19
2022-09-30T02:24:08.642Z,94.37
2022-09-30T02:26:15.261Z,94.48
2022-09-30T02:28:22.017Z,95.67
2022-09-30T02:30:25.202Z,94.44
2022-09-30T02:32:32.086Z,94.91
2022-09-30T02:34:39.476Z,95.57
2022-09-30T02:36:46.736Z,94.90
2022-09-30T02:38:56.458Z,95.27
2022-09-30T02:41:04.772Z,95.81
2022-09-30T02:43:08.437Z,96.11
2022-09-30T02:45:16.366Z,96.64
2022-09-30T02:47:26.828Z,96.83
2022-09-30T02:49:32.503Z,95.94
2022-09-30T02:51:41.941Z,96.51
2022-09-30T02:53:47.287Z,97.35
2022-09-30T02:56:05.529Z,96.63
2022-09-30T02:58:13.002Z,97.57
2022-09-30T03:00:16.159Z,97.02
2022-09-30T03:02:19.879Z,96.27
2022-09-30T03:04:27.184Z,97.50
2022-09-30T03:06:30.304Z,96.91
2022-09-30T03:08:34.839Z,97.02
2022-09-30T03:10:38.274Z,97.24
2022-09-30T03:12:47.669Z,97.21
2022-09-30T03:15:14.038Z,96.56
2022-09-30T03:17:33.219Z,97.11
2022-09-30T03:19:49.833Z,96.84
2022-09-30T03:22:05.513Z,96.53
2022-09-30T03:24:24.460Z,96.52
2022-09-30T03:26:34.989Z,96.40
2022-09-30T03:28:45.671Z,95.59
2022-09-30T03:30:56.694Z,95.51
2022-09-30T03:33:09.065Z,95.42
2022-09-30T03:35:19.130Z,95.53
2022-09-30T03:37:28.712Z,95.70
2022-09-30T03:39:42.111Z,95.88
2022-09-30T03:41:47.677Z,95.55
2022-09-30T03:43:52.645Z,95.53
2022-09-30T03:46:01.155Z,95.37
2022-09-30T03:48:05.771Z,95.01
2022-09-30T03:50:10.005Z,95.87
2022-09-30T03:52:14.238Z,96.07
2022-09-30T03:54:17.591Z,96.10
2022-09-30T03:56:28.124Z,95.90
2022-09-30T03:58:31.071Z,95.69
2022-09-30T04:00:34.202Z,97.63
2022-09-30T04:02:37.893Z,96.61
2022-09-30T04:04:41.887Z,96.80
2022-09-30T04:06:44.904Z,97.90
2022-09-30T04:08:48.060Z,96.33
2022-09-30T04:10:50.984Z,97.42
2022-09-30T04:12:55.807Z,97.83
2022-09-30T04:14:58.755Z,97.90
2022-09-30T04:17:01.790Z,98.63
2022-09-30T04:19:04.864Z,97.00
2022-09-30T04:21:08.589Z,97.78
2022-09-30T04:23:11.551Z,97.01
2022-09-30T04:25:14.832Z,96.99
2022-09-30T04:27:17.799Z,96.75
2022-09-30T04:29:22.197Z,98.01
2022-09-30T04:31:25.734Z,96.93
2022-09-30T04:33:28.884Z,97.88
2022-09-30T04:35:32.675Z,96.97
2022-09-30T04:37:35.655Z,97.11
2022-09-30T04:39:38.653Z,96.88
2022-09-30T04:41:41.596Z,97.05
2022-09-30T04:43:45.372Z,96.83
2022-09-30T04:45:50.155Z,96.05
2022-09-30T04:47:53.183Z,96.01
2022-09-30T04:49:56.514Z,96.82
2022-09-30T04:51:59.502Z,96.95
2022-09-30T04:54:02.846Z,96.31
2022-09-30T04:56:06.257Z,96.63
2022-09-30T04:58:09.193Z,97.57
2022-09-30T05:00:13.156Z,97.16
2022-09-30T05:02:17.765Z,96.62
2022-09-30T05:04:20.750Z,96.91
2022-09-30T05:06:23.668Z,96.57
2022-09-30T05:08:26.563Z,95.14
2022-09-30T05:10:29.913Z,96.33
2022-09-30T05:12:32.846Z,94.57
2022-09-30T05:14:35.772Z,94.42
2022-09-30T05:16:38.887Z,94.49
2022-09-30T05:18:45.812Z,94.92
2022-09-30T05:20:51.046Z,95.03
2022-09-30T05:22:56.003Z,95.71
2022-09-30T05:24:58.921Z,94.52
2022-09-30T05:27:02.252Z,94.38
2022-09-30T05:29:05.178Z,95.82
2022-09-30T05:31:08.241Z,95.18
2022-09-30T05:33:11.861Z,95.23
2022-09-30T05:35:16.240Z,96.30
2022-09-30T05:37:19.216Z,96.24
2022-09-30T05:39:22.285Z,94.89
2022-09-30T05:41:25.311Z,96.34
2022-09-30T05:43:28.250Z,95.55
2022-09-30T05:45:31.255Z,97.03
2022-09-30T05:47:34.422Z,97.59
2022-09-30T05:49:37.312Z,97.38
2022-09-30T05:51:41.640Z,96.66
2022-09-30T05:53:44.775Z,97.48
2022-09-30T05:55:48.311Z,96.30
2022-09-30T05:57:52.255Z,97.62
2022-09-30T05:59:55.338Z,97.83
2022-09-30T06:01:58.382Z,98.18
2022-09-30T06:04:01.758Z,97.64
2022-09-30T06:06:04.968Z,97.96
2022-09-30T06:08:09.784Z,97.18
2022-09-30T06:10:12.782Z,98.13
2022-09-30T06:12:16.063Z,97.76
2022-09-30T06:14:19.933Z,97.30
2022-09-30T06:16:24.036Z,97.93
2022-09-30T06:18:27.752Z,96.98
2022-09-30T06:20:31.267Z,96.93
2022-09-30T06:22:36.070Z,96.67
2022-09-30T06:24:41.625Z,97.71
2022-09-30T06:26:44.515Z,97.19
2022-09-30T06:28:47.474Z,97.59
2022-09-30T06:30:50.856Z,97.68
2022-09-30T06:32:54.117Z,96.06
2022-09-30T06:34:57.124Z,96.47
2022-09-30T06:37:00.209Z,96.82
2022-09-30T06:39:04.390Z,97.00
2022-09-30T06:41:09.727Z,95.95
2022-09-30T06:43:13.418Z,96.28
2022-09-30T06:45:30.120Z,97.24
2022-09-30T06:47:34.980Z,96.79
2022-09-30T06:49:48.222Z,96.80
2022-09-30T06:51:52.684Z,97.13
2022-09-30T06:53:56.172Z,96.64
2022-09-30T06:55:59.376Z,97.10
2022-09-30T06:58:03.710Z,97.58
2022-09-30T07:00:08.099Z,97.88
2022-09-30T07:02:13.416Z,96.59
2022-09-30T07:04:16.446Z,96.86
2022-09-30T07:06:19.424Z,97.13
2022-09-30T07:08:22.341Z,97.81
2022-09-30T07:10:25.309Z,96.19
2022-09-30T07:12:28.881Z,96.28
2022-09-30T07:14:33.921Z,96.32
2022-09-30T07:16:38.467Z,95.75
2022-09-30T07:18:42.720Z,95.92
2022-09-30T07:20:49.476Z,95.98
2022-09-30T07:22:52.517Z,96.33
2022-09-30T07:24:55.992Z,96.25
2022-09-30T07:26:59.093Z,95.28
2022-09-30T07:29:02.396Z,95.36
2022-09-30T07:31:32.034Z,95.44
2022-09-30T07:33:35.574Z,95.36
2022-09-30T07:35:39.018Z,95.66
2022-09-30T07:37:42.001Z,96.25
2022-09-30T07:39:46.036Z,95.96
2022-09-30T07:41:49.033Z,95.36
2022-09-30T07:43:52.013Z,93.91
2022-09-30T07:45:56.378Z,94.76
2022-09-30T07:48:01.886Z,95.04
2022-09-30T07:50:05.433Z,95.66
2022-09-30T07:52:09.184Z,94.66
2022-09-30T07:54:14.631Z,95.94
2022-09-30T07:56:18.209Z,94.54
2022-09-30T07:58:21.586Z,95.69
2022-09-30T08:00:41.622Z,93.34
2022-09-30T08:02:45.459Z,94.56
2022-09-30T08:04:50.027Z,94.00
2022-09-30T08:06:55.540Z,95.17
2022-09-30T08:09:00.048Z,93.31
2022-09-30T08:11:03.757Z,92.86
2022-09-30T08:13:07.133Z,91.77
2022-09-30T08:15:10.932Z,92.78
2022-09-30T08:17:14.130Z,90.80
2022-09-30T08:19:19.195Z,91.53
2022-09-30T08:21:23.678Z,92.31
2022-09-30T08:23:29.354Z,90.99
2022-09-30T08:25:32.608Z,91.48
2022-09-30T08:27:36.114Z,91.19
2022-09-30T08:29:56.659Z,90.91
2022-09-30T08:32:01.913Z,90.92
2022-09-30T08:34:05.035Z,91.11
2022-09-30T08:36:10.244Z,91.68
2022-09-30T08:38:14.537Z,91.32
2022-09-30T08:40:20.125Z,91.39
2022-09-30T08:42:41.298Z,91.60
2022-09-30T08:44:48.995Z,91.24
2022-09-30T08:46:58.554Z,91.99
2022-09-30T08:49:07.359Z,91.08
2022-09-30T08:51:22.818Z,90.80
2022-09-30T08:53:31.273Z,90.70
2022-09-30T08:55:39.860Z,90.83
2022-09-30T08:57:47.343Z,90.41
2022-09-30T08:59:55.236Z,90.19
2022-09-30T09:02:03.153Z,90.51
2022-09-30T09:04:07.984Z,90.24
2022-09-30T09:06:21.664Z,89.75
2022-09-30T09:08:33.747Z,91.32
2022-09-30T09:10:42.978Z,89.68
2022-09-30T09:12:51.420Z,88.98
2022-09-30T09:15:04.672Z,88.74
2022-09-30T09:17:18.869Z,88.30
2022-09-30T09:19:26.435Z,88.32
2022-09-30T09:21:37.281Z,90.30
2022-09-30T09:23:42.259Z,86.33
2022-09-30T09:25:49.412Z,88.53
2022-09-30T09:27:55.008Z,85.53
2022-09-30T09:30:06.399Z,86.67
2022-09-30T09:32:14.927Z,85.18
2022-09-30T09:34:18.078Z,86.43
2022-09-30T09:36:34.533Z,83.09
2022-09-30T09:38:45.603Z,83.02
2022-09-30T09:40:58.298Z,83.38
2022-09-30T09:43:12.191Z,82.73
2022-09-30T09:45:23.434Z,80.24
2022-09-30T09:47:26.403Z,82.29
2022-09-30T09:49:32.159Z,81.22
2022-09-30T09:51:37.524Z,80.77
2022-09-30T09:53:48.910Z,80.91
2022-09-30T09:55:59.296Z,80.20
2022-09-30T09:58:13.882Z,80.06
2022-09-30T10:00:43.394Z,80.05
2022-09-30T10:02:46.569Z,79.11
2022-09-30T10:04:59.795Z,80.31
2022-09-30T10:07:13.806Z,79.24
2022-09-30T10:09:30.344Z,79.28
2022-09-30T10:11:33.333Z,79.86
2022-09-30T10:13:43.189Z,78.96
2022-09-30T10:15:46.608Z,77.44
2022-09-30T10:17:54.763Z,78.15
2022-09-30T10:20:02.277Z,77.82
2022-09-30T10:22:20.299Z,76.75
2022-09-30T10:24:31.637Z,78.16
2022-09-30T10:26:47.832Z,78.46
2022-09-30T10:28:53.967Z,80.32
2022-09-30T10:30:59.371Z,79.71
2022-09-30T10:33:04.276Z,79.43
2022-09-30T10:35:17.110Z,77.71
2022-09-30T10:37:22.652Z,75.93
2022-09-30T10:39:27.320Z,76.18
2022-09-30T10:41:33.338Z,75.23
2022-09-30T10:43:44.385Z,76.49
2022-09-30T10:46:06.961Z,75.04
2022-09-30T10:48:18.583Z,72.78
2022-09-30T10:50:23.100Z,72.25
2022-09-30T10:52:28.067Z,71.43
2022-09-30T10:54:46.286Z,68.21
2022-09-30T10:56:53.543Z,69.45
2022-09-30T10:58:57.627Z,70.31
2022-09-30T11:01:05.840Z,68.19
2022-09-30T11:03:12.843Z,67.88
2022-09-30T11:05:19.349Z,70.40
2022-09-30T11:07:27.784Z,71.26
2022-09-30T11:09:36.391Z,74.87
2022-09-30T11:11:41.251Z,74.30
2022-09-30T11:13:50.120Z,76.41
2022-09-30T11:15:58.912Z,72.74
2022-09-30T11:18:05.972Z,71.58
2022-09-30T11:20:18.784Z,71.33
2022-09-30T11:22:35.184Z,70.78
2022-09-30T11:24:41.868Z,70.23
2022-09-30T11:26:51.269Z,70.73
2022-09-30T11:29:06.861Z,70.77
2022-09-30T11:31:19.483Z,71.55
2022-09-30T11:33:45.198Z,71.32
2022-09-30T11:35:54.838Z,71.37
2022-09-30T11:38:09.717Z,69.89
2022-09-30T11:40:33.161Z,70.25
2022-09-30T11:42:43.514Z,68.74
2022-09-30T11:44:47.995Z,68.49
2022-09-30T11:47:05.017Z,67.97
2022-09-30T11:49:29.341Z,67.59
2022-09-30T11:51:40.144Z,69.27
2022-09-30T11:53:50.400Z,67.60
2022-09-30T11:56:04.331Z,66.34
2022-09-30T11:58:36.167Z,64.57
2022-09-30T12:00:35.718Z,65.35
2022-09-30T12:02:42.537Z,66.73
2022-09-30T12:04:46.455Z,66.55
2022-09-30T12:06:53.596Z,66.32
2022-09-30T12:08:59.980Z,67.17
2022-09-30T12:11:06.155Z,66.78
2022-09-30T12:13:12.269Z,68.00
2022-09-30T12:15:17.956Z,67.68
2022-09-30T12:17:29.777Z,68.33
2022-09-30T12:19:37.316Z,68.48
2022-09-30T12:21:45.473Z,68.69
2022-09-30T12:23:51.153Z,68.44
2022-09-30T12:25:57.415Z,67.60
2022-09-30T12:28:25.106Z,67.90
2022-09-30T12:30:29.763Z,68.35
2022-09-30T12:33:10.836Z,67.69
2022-09-30T12:35:43.778Z,67.89
2022-09-30T12:37:59.569Z,67.08
2022-09-30T12:40:34.092Z,67.04
2022-09-30T12:42:52.808Z,67.58
2022-09-30T12:45:17.978Z,67.28
2022-09-30T12:47:34.083Z,67.75
2022-09-30T12:49:40.438Z,66.82
2022-09-30T12:51:44.324Z,68.07
2022-09-30T12:53:51.708Z,67.52
2022-09-30T12:55:55.579Z,64.57
2022-09-30T12:58:01.352Z,65.85
2022-09-30T13:00:08.903Z,66.65
2022-09-30T13:02:30.261Z,67.33
2022-09-30T13:04:35.703Z,67.35
2022-09-30T13:07:08.464Z,66.23
2022-09-30T13:09:22.537Z,65.64
2022-09-30T13:11:42.971Z,67.47
2022-09-30T13:14:01.933Z,66.63
2022-09-30T13:16:06.689Z,67.73
2022-09-30T13:18:46.813Z,66.09
2022-09-30T13:20:55.085Z,66.72
2022-09-30T13:22:59.829Z,67.93
2022-09-30T13:25:12.689Z,67.86
2022-09-30T13:27:16.274Z,67.29
2022-09-30T13:29:48.358Z,67.39
2022-09-30T13:32:04.479Z,66.93
2022-09-30T13:34:11.653Z,66.78
2022-09-30T13:36:28.589Z,66.40
2022-09-30T13:38:37.843Z,65.83
2022-09-30T13:41:00.795Z,66.22
2022-09-30T13:43:05.358Z,65.53
2022-09-30T13:45:16.343Z,65.54
2022-09-30T13:47:23.343Z,65.10
2022-09-30T13:49:34.921Z,64.84
2022-09-30T13:51:40.205Z,66.35
2022-09-30T13:53:47.029Z,66.94
2022-09-30T13:55:53.701Z,66.39
2022-09-30T13:58:07.102Z,64.02
2022-09-30T14:00:13.779Z,64.82
2022-09-30T14:02:44.689Z,62.61
2022-09-30T14:04:56.814Z,63.88
2022-09-30T14:07:07.115Z,63.38
2022-09-30T14:09:24.723Z,63.47
2022-09-30T14:11:41.304Z,63.27
2022-09-30T14:13:51.155Z,64.47
2022-09-30T14:16:12.146Z,64.21
2022-09-30T14:18:41.377Z,64.14
2022-09-30T14:21:01.374Z,62.46
2022-09-30T14:23:05.204Z,63.16
2022-09-30T14:25:15.614Z,63.48
2022-09-30T14:27:32.035Z,63.44
2022-09-30T14:29:40.826Z,63.02
2022-09-30T14:31:45.515Z,63.30
2022-09-30T14:33:50.209Z,63.50
2022-09-30T14:35:54.082Z,63.46
2022-09-30T14:38:00.173Z,63.36
2022-09-30T14:40:03.861Z,63.89
2022-09-30T14:42:15.186Z,63.75
2022-09-30T14:44:19.973Z,64.36
2022-09-30T14:46:30.259Z,63.58
2022-09-30T14:48:35.759Z,63.99
2022-09-30T14:50:44.512Z,64.15
2022-09-30T14:52:49.405Z,63.88
2022-09-30T14:54:52.417Z,62.99
2022-09-30T14:56:55.564Z,63.55
2022-09-30T14:59:00.986Z,63.55
2022-09-30T15:01:07.160Z,62.86
2022-09-30T15:03:12.481Z,62.33
2022-09-30T15:05:16.514Z,61.45
2022-09-30T15:07:20.067Z,62.13
2022-09-30T15:09:29.611Z,60.42
2022-09-30T15:11:37.301Z,61.20
2022-09-30T15:13:43.454Z,61.04
2022-09-30T15:15:47.958Z,60.75
2022-09-30T15:17:51.863Z,60.84
2022-09-30T15:19:55.838Z,60.57
2022-09-30T15:22:02.089Z,61.82
2022-09-30T15:24:06.606Z,63.33
2022-09-30T15:26:12.492Z,64.16
2022-09-30T15:28:15.880Z,65.06
2022-09-30T15:30:29.046Z,66.00
2022-09-30T15:32:35.582Z,65.64
2022-09-30T15:34:38.737Z,65.74
2022-09-30T15:36:41.852Z,65.99
2022-09-30T15:38:49.052Z,66.37
2022-09-30T15:40:59.034Z,66.78
2022-09-30T15:43:04.238Z,66.83
2022-09-30T15:45:34.215Z,66.84
2022-09-30T15:47:54.532Z,67.12
2022-09-30T15:49:58.039Z,67.41
2022-09-30T15:52:36.236Z,67.32
2022-09-30T15:54:39.202Z,67.59
2022-09-30T15:56:43.170Z,68.23
2022-09-30T15:58:56.270Z,68.16
2022-09-30T16:01:14.882Z,67.28
2022-09-30T16:03:29.881Z,67.85
2022-09-30T16:05:33.000Z,68.38
2022-09-30T16:07:36.088Z,69.19
2022-09-30T16:09:40.625Z,68.86
2022-09-30T16:11:45.203Z,69.29
2022-09-30T16:13:48.817Z,69.63
2022-09-30T16:15:53.528Z,70.27
2022-09-30T16:17:57.129Z,69.03
2022-09-30T16:20:04.270Z,70.41
2022-09-30T16:22:51.639Z,70.54
2022-09-30T16:25:01.154Z,70.93
2022-09-30T16:27:22.367Z,70.59
2022-09-30T16:29:26.800Z,70.16
2022-09-30T16:31:30.989Z,70.53
2022-09-30T16:33:36.936Z,71.26
2022-09-30T16:35:42.683Z,72.47
2022-09-30T16:37:45.739Z,71.57
2022-09-30T16:39:49.545Z,72.97
2022-09-30T16:41:54.234Z,73.77
2022-09-30T16:43:57.297Z,73.71
2022-09-30T16:46:01.566Z,75.33
2022-09-30T16:48:12.035Z,76.09
2022-09-30T16:50:25.426Z,76.33
2022-09-30T16:52:29.967Z,76.90
2022-09-30T16:54:33.033Z,78.80
2022-09-30T16:56:36.261Z,79.51
2022-09-30T16:58:39.218Z,79.68
2022-09-30T17:00:43.123Z,79.68
2022-09-30T17:02:47.524Z,78.46
2022-09-30T17:04:50.479Z,78.37
2022-09-30T17:06:53.675Z,78.29
2022-09-30T17:08:58.224Z,79.89
2022-09-30T17:11:01.227Z,79.72
2022-09-30T17:13:04.231Z,78.77
2022-09-30T17:15:07.910Z,80.56
2022-09-30T17:17:13.644Z,78.60
2022-09-30T17:19:17.115Z,79.10
2022-09-30T17:21:20.663Z,79.13
2022-09-30T17:23:25.851Z,79.29
2022-09-30T17:25:30.220Z,79.48
2022-09-30T17:27:33.223Z,81.24
2022-09-30T17:29:41.751Z,81.10
2022-09-30T17:31:45.258Z,80.44
2022-09-30T17:33:48.279Z,80.17
2022-09-30T17:36:00.236Z,78.43
2022-09-30T17:38:07.207Z,79.46
2022-09-30T17:40:25.077Z,79.54
2022-09-30T17:42:47.137Z,79.37
2022-09-30T17:44:50.162Z,78.99
2022-09-30T17:47:00.298Z,80.03
2022-09-30T17:49:03.319Z,80.12
2022-09-30T17:51:07.811Z,81.47
2022-09-30T17:53:13.064Z,80.96
2022-09-30T17:55:16.184Z,80.68
2022-09-30T17:57:19.435Z,81.55
2022-09-30T17:59:25.979Z,81.52
2022-09-30T18:01:29.463Z,81.73
2022-09-30T18:03:32.575Z,81.61
2022-09-30T18:05:35.589Z,81.77
2022-09-30T18:07:38.689Z,81.38
2022-09-30T18:09:41.633Z,82.23
2022-09-30T18:11:45.021Z,82.34
2022-09-30T18:13:52.857Z,82.66
2022-09-30T18:15:59.622Z,82.91
2022-09-30T18:18:02.730Z,83.46
2022-09-30T18:20:07.087Z,83.42
2022-09-30T18:22:10.207Z,83.30
2022-09-30T18:24:13.190Z,83.78
2022-09-30T18:26:16.966Z,83.88
2022-09-30T18:28:19.987Z,83.94
2022-09-30T18:30:23.564Z,84.40
2022-09-30T18:32:28.591Z,84.92
2022-09-30T18:34:31.742Z,85.57
2022-09-30T18:36:35.354Z,85.05
2022-09-30T18:38:38.404Z,84.87
2022-09-30T18:40:42.946Z,85.02
2022-09-30T18:42:46.347Z,86.21
2022-09-30T18:44:51.038Z,85.50
2022-09-30T18:46:55.427Z,87.18
2022-09-30T18:48:59.943Z,87.61
2022-09-30T18:51:03.535Z,86.67
2022-09-30T18:53:10.010Z,87.04
2022-09-30T18:55:13.238Z,86.53
2022-09-30T18:57:17.194Z,86.76
2022-09-30T18:59:23.369Z,88.37
2022-09-30T19:01:27.985Z,87.47
2022-09-30T19:03:31.281Z,87.35
2022-09-30T19:05:36.494Z,87.48
2022-09-30T19:07:39.711Z,87.88
2022-09-30T19:09:42.748Z,89.74
2022-09-30T19:11:47.225Z,87.99
2022-09-30T19:13:53.384Z,89.50
2022-09-30T19:15:56.402Z,88.42
2022-09-30T19:17:59.943Z,89.81
2022-09-30T19:20:03.474Z,88.88
2022-09-30T19:22:07.906Z,89.42
2022-09-30T19:24:11.211Z,87.54
2022-09-30T19:26:15.389Z,87.17
2022-09-30T19:28:19.338Z,88.35
2022-09-30T19:30:24.034Z,89.16
2022-09-30T19:32:29.425Z,88.45
2022-09-30T19:34:32.670Z,89.43
2022-09-30T19:36:48.275Z,90.53
2022-09-30T19:39:09.953Z,89.02
2022-09-30T19:41:16.190Z,90.00
2022-09-30T19:43:19.676Z,90.59
2022-09-30T19:45:25.769Z,88.85
2022-09-30T19:47:33.622Z,89.19
2022-09-30T19:49:37.395Z,90.40
2022-09-30T19:51:40.344Z,90.33
2022-09-30T19:53:57.579Z,90.29
2022-09-30T19:56:10.333Z,90.08
2022-09-30T19:58:14.551Z,90.04
2022-09-30T20:00:18.138Z,92.01
2022-09-30T20:02:22.170Z,90.82
2022-09-30T20:04:25.750Z,90.57
2022-09-30T20:06:28.919Z,90.17
2022-09-30T20:08:32.902Z,89.76
2022-09-30T20:10:39.242Z,88.42
2022-09-30T20:12:43.955Z,88.63
2022-09-30T20:15:05.639Z,89.10
2022-09-30T20:17:08.648Z,89.60
2022-09-30T20:19:12.106Z,90.49
2022-09-30T20:21:18.831Z,89.89
2022-09-30T20:23:22.202Z,90.14
2022-09-30T20:25:25.467Z,89.93
2022-09-30T20:27:28.984Z,89.40
2022-09-30T20:29:33.603Z,90.79
2022-09-30T20:31:37.218Z,90.48
2022-09-30T20:33:40.788Z,91.16
2022-09-30T20:35:43.809Z,91.48
2022-09-30T20:37:46.922Z,90.83
2022-09-30T20:39:49.901Z,90.10
2022-09-30T20:41:55.054Z,91.51
2022-09-30T20:43:58.777Z,91.57
2022-09-30T20:46:05.560Z,90.98
2022-09-30T20:48:11.768Z,91.59
2022-09-30T20:50:35.010Z,91.19
2022-09-30T20:52:38.172Z,90.21
2022-09-30T20:54:41.175Z,91.82
2022-09-30T20:57:06.422Z,91.31
2022-09-30T20:59:08.464Z,92.13
2022-09-30T21:01:14.724Z,90.59
2022-09-30T21:03:17.800Z,90.54
2022-09-30T21:05:21.323Z,91.33
2022-09-30T21:07:25.266Z,90.46
2022-09-30T21:09:28.256Z,91.79
2022-09-30T21:11:31.469Z,90.69
2022-09-30T21:13:35.247Z,91.46
2022-09-30T21:15:38.211Z,90.79
2022-09-30T21:17:45.408Z,90.89
2022-09-30T21:19:48.331Z,91.45
2022-09-30T21:21:51.290Z,90.10
2022-09-30T21:23:57.445Z,90.84
2022-09-30T21:26:01.155Z,91.03
2022-09-30T21:28:04.552Z,90.83
2022-09-30T21:30:08.704Z,91.45
2022-09-30T21:32:11.712Z,91.35
2022-09-30T21:34:16.104Z,91.21
2022-09-30T21:36:21.009Z,91.09
2022-09-30T21:38:25.125Z,91.25
2022-09-30T21:40:28.870Z,91.41
2022-09-30T21:42:31.868Z,91.32
2022-09-30T21:44:34.871Z,91.58
2022-09-30T21:46:37.895Z,90.97
2022-09-30T21:48:41.071Z,91.20
2022-09-30T21:50:45.336Z,90.54
2022-09-30T21:52:49.157Z,90.53
2022-09-30T21:54:56.972Z,91.58
2022-09-30T21:56:59.913Z,91.86
2022-09-30T21:59:02.873Z,92.23
2022-09-30T22:01:06.950Z,91.81
2022-09-30T22:03:10.402Z,91.78
2022-09-30T22:05:13.498Z,92.03
2022-09-30T22:07:17.823Z,91.35
2022-09-30T22:09:20.780Z,91.26
2022-09-30T22:11:24.894Z,91.30
2022-09-30T22:13:27.954Z,90.89
2022-09-30T22:15:31.598Z,90.65
2022-09-30T22:17:34.608Z,90.69
2022-09-30T22:19:38.947Z,90.78
2022-09-30T22:21:42.107Z,91.33
2022-09-30T22:23:47.508Z,90.85
2022-09-30T22:25:50.465Z,91.49
2022-09-30T22:27:53.487Z,91.49
2022-09-30T22:29:56.459Z,91.79
2022-09-30T22:32:01.808Z,91.60
2022-09-30T22:34:24.192Z,91.68
2022-09-30T22:36:44.475Z,92.51
2022-09-30T22:38:49.537Z,92.89
2022-09-30T22:40:54.780Z,92.33
2022-09-30T22:42:57.860Z,92.21
2022-09-30T22:45:01.154Z,92.20
2022-09-30T22:47:05.142Z,92.43
2022-09-30T22:49:08.372Z,92.33
2022-09-30T22:51:16.110Z,92.12
2022-09-30T22:53:19.122Z,92.28
2022-09-30T22:55:23.411Z,92.01
2022-09-30T22:57:26.363Z,92.02
2022-09-30T22:59:30.193Z,91.71
2022-09-30T23:01:33.493Z,91.63
2022-09-30T23:03:36.824Z,91.86
2022-09-30T23:05:39.766Z,92.03
2022-09-30T23:07:42.730Z,92.34
2022-09-30T23:09:46.045Z,91.82
2022-09-30T23:11:54.090Z,92.24
2022-09-30T23:13:59.303Z,92.32
2022-09-30T23:16:02.852Z,91.95
2022-09-30T23:18:05.782Z,92.17
2022-09-30T23:20:09.459Z,92.45
2022-09-30T23:22:12.554Z,92.52
2022-09-30T23:24:15.832Z,92.62
2022-09-30T23:26:20.606Z,92.92
2022-09-30T23:28:24.971Z,93.22
2022-09-30T23:30:27.954Z,93.20
2022-09-30T23:32:30.892Z,92.38
2022-09-30T23:34:33.859Z,92.53
2022-09-30T23:36:38.029Z,92.50
2022-09-30T23:38:41.009Z,92.36
2022-09-30T23:40:44.711Z,92.09
2022-09-30T23:42:50.403Z,92.96
2022-09-30T23:44:54.700Z,92.69
2022-09-30T23:47:15.451Z,92.49
2022-09-30T23:49:19.650Z,92.02
2022-09-30T23:51:22.569Z,93.09
2022-09-30T23:53:25.660Z,92.54
2022-09-30T23:55:30.569Z,92.12
2022-09-30T23:57:33.626Z,91.53
2022-09-30T23:59:36.489Z,92.81
